Time;durP1;ratioP1;P1;durP2;ratioP2;P2;SDS_P1;SDS_P2;PMS_P1;PMS_P2;Temp;Humidity;BMP_temperature;BMP_pressure;BME280_temperature;BME280_humidity;BME280_pressure;Samples;Min_cycle;Max_cycle;Signal;HPM_P1;HPM_P2
2023/04/08 00:01:12;;;;;;;8.40;7.60;;;15.00;60.60;;;;;;5033604;28;20228;-53
2023/04/08 00:03:38;;;;;;;9.00;8.10;;;15.00;59.90;;;;;;5033374;28;20634;-52
2023/04/08 00:06:04;;;;;;;9.93;9.00;;;14.90;60.00;;;;;;5033272;28;20264;-53
2023/04/08 00:08:30;;;;;;;8.70;7.80;;;14.90;60.90;;;;;;5033226;28;20284;-49
2023/04/08 00:10:55;;;;;;;10.70;8.80;;;15.00;60.10;;;;;;5033246;28;20568;-52
2023/04/08 00:13:21;;;;;;;10.03;9.03;;;15.00;60.30;;;;;;5032757;28;20505;-53
2023/04/08 00:15:47;;;;;;;9.43;8.53;;;15.00;60.30;;;;;;5031900;28;20194;-52
2023/04/08 00:18:15;;;;;;;9.13;8.27;;;15.00;60.40;;;;;;5033068;28;20189;-50
2023/04/08 00:20:41;;;;;;;10.67;8.50;;;15.00;60.20;;;;;;5033260;28;20225;-50
2023/04/08 00:23:07;;;;;;;9.07;8.17;;;15.00;60.10;;;;;;5033151;28;20427;-54
2023/04/08 00:25:33;;;;;;;9.73;8.73;;;15.00;60.00;;;;;;5032911;28;20424;-52
2023/04/08 00:27:58;;;;;;;9.93;8.83;;;15.00;60.20;;;;;;5032584;28;20197;-50
2023/04/08 00:30:26;;;;;;;9.83;8.93;;;15.00;60.20;;;;;;5033002;28;20201;-51
2023/04/08 00:32:51;;;;;;;10.03;9.00;;;15.00;60.40;;;;;;5032988;28;20205;-50
2023/04/08 00:35:17;;;;;;;10.70;9.60;;;15.00;60.30;;;;;;5032962;28;20515;-50
2023/04/08 00:37:42;;;;;;;10.40;9.30;;;15.00;60.30;;;;;;5032386;28;20205;-49
2023/04/08 00:40:08;;;;;;;10.33;9.33;;;14.90;60.20;;;;;;5032868;28;20243;-53
2023/04/08 00:42:34;;;;;;;11.33;9.90;;;15.00;60.30;;;;;;5031433;28;20195;-53
2023/04/08 00:45:00;;;;;;;10.40;9.13;;;14.90;60.20;;;;;;5032827;28;20561;-50
2023/04/08 00:47:25;;;;;;;9.70;8.70;;;14.90;60.50;;;;;;5032468;28;20189;-49
2023/04/08 00:49:51;;;;;;;9.60;8.70;;;14.90;60.60;;;;;;5032796;28;20204;-52
2023/04/08 00:52:16;;;;;;;9.60;8.60;;;14.90;60.60;;;;;;5032578;28;20663;-53
2023/04/08 00:54:42;;;;;;;9.50;8.03;;;14.90;61.10;;;;;;5032287;28;20337;-51
2023/04/08 00:57:08;;;;;;;10.20;9.20;;;14.80;60.00;;;;;;5031997;28;20216;-50
2023/04/08 00:59:35;;;;;;;10.93;9.83;;;14.80;60.00;;;;;;5031589;28;20193;-50
2023/04/08 01:02:05;;;;;;;11.57;8.63;;;14.80;60.00;;;;;;5031214;28;20193;-54
2023/04/08 01:04:57;;;;;;;10.50;9.50;;;14.80;60.30;;;;;;5032603;28;20538;-50
2023/04/08 01:07:40;;;;;;;11.07;9.97;;;14.70;60.50;;;;;;5030785;28;20443;-51
2023/04/08 01:10:21;;;;;;;10.00;8.67;;;14.60;60.90;;;;;;5032369;28;20444;-54
2023/04/08 01:13:10;;;;;;;11.00;9.60;;;14.60;60.90;;;;;;5032201;28;20424;-53
2023/04/08 01:15:39;;;;;;;11.10;10.03;;;14.60;60.70;;;;;;5031811;28;20440;-50
2023/04/08 01:18:07;;;;;;;12.80;10.70;;;14.70;60.60;;;;;;5032112;28;20468;-50
2023/04/08 01:20:33;;;;;;;10.77;9.53;;;14.70;60.60;;;;;;5032060;28;20483;-53
2023/04/08 01:23:05;;;;;;;11.00;9.90;;;14.60;60.70;;;;;;5031911;28;20415;-49
2023/04/08 01:25:33;;;;;;;10.63;9.53;;;14.60;60.80;;;;;;5031683;28;20440;-53
2023/04/08 01:28:09;;;;;;;10.73;9.63;;;14.60;60.70;;;;;;5031629;28;20443;-53
2023/04/08 01:30:38;;;;;;;11.53;10.40;;;14.60;60.80;;;;;;5031732;28;20447;-51
2023/04/08 01:33:04;;;;;;;11.93;10.20;;;14.70;60.80;;;;;;5031770;28;20775;-50
2023/04/08 01:35:31;;;;;;;11.63;10.50;;;14.70;60.80;;;;;;5029745;28;20428;-54
2023/04/08 01:37:57;;;;;;;11.37;10.20;;;14.60;60.70;;;;;;5031463;28;20436;-51
2023/04/08 01:40:22;;;;;;;12.70;11.40;;;14.50;60.90;;;;;;5031450;28;21153;-49
2023/04/08 01:42:50;;;;;;;12.60;10.63;;;14.60;61.10;;;;;;5031822;28;20503;-51
2023/04/08 01:45:17;;;;;;;12.33;11.13;;;14.50;61.00;;;;;;5031208;28;20539;-54
2023/04/08 01:47:46;;;;;;;12.63;10.83;;;14.60;61.00;;;;;;5031361;28;20456;-53
2023/04/08 01:50:12;;;;;;;11.90;10.70;;;14.60;61.00;;;;;;5031372;28;20920;-50
2023/04/08 01:52:40;;;;;;;13.37;12.07;;;14.60;61.00;;;;;;5031282;28;20439;-50
2023/04/08 01:55:06;;;;;;;12.97;11.60;;;14.60;60.90;;;;;;5031277;28;20942;-52
2023/04/08 01:57:36;;;;;;;11.17;10.07;;;14.60;60.80;;;;;;5031133;28;20416;-50
2023/04/08 02:00:12;;;;;;;12.57;11.23;;;14.60;60.70;;;;;;5031266;28;22246;-50
2023/04/08 02:02:41;;;;;;;12.50;11.20;;;14.50;60.80;;;;;;5029617;28;20531;-51
2023/04/08 02:05:07;;;;;;;12.10;10.90;;;14.30;61.40;;;;;;5031307;28;20435;-50
2023/04/08 02:07:33;;;;;;;12.20;11.00;;;14.00;62.50;;;;;;5030885;28;20435;-51
2023/04/08 02:09:58;;;;;;;12.20;10.90;;;14.10;62.90;;;;;;5031005;28;20448;-50
2023/04/08 02:12:25;;;;;;;13.50;12.10;;;14.10;62.50;;;;;;5031069;28;20189;-53
2023/04/08 02:14:52;;;;;;;13.37;12.07;;;14.20;62.30;;;;;;5030935;28;20197;-49
2023/04/08 02:17:26;;;;;;;13.30;12.00;;;14.20;62.20;;;;;;5030461;28;20440;-52
2023/04/08 02:20:06;;;;;;;12.73;11.50;;;14.10;62.50;;;;;;5030634;28;20533;-53
2023/04/08 02:22:35;;;;;;;14.20;12.80;;;14.20;62.30;;;;;;5030989;28;20436;-52
2023/04/08 02:25:03;;;;;;;12.20;10.87;;;14.30;61.90;;;;;;5030942;28;20489;-54
2023/04/08 02:27:30;;;;;;;13.57;12.17;;;14.40;61.50;;;;;;5030429;28;20436;-53
2023/04/08 02:29:57;;;;;;;15.87;12.43;;;14.40;61.20;;;;;;5011582;28;20986;-53
2023/04/08 02:32:24;;;;;;;14.80;12.40;;;14.40;61.20;;;;;;5030768;28;20416;-52
2023/04/08 02:34:51;;;;;;;12.40;11.13;;;14.50;60.90;;;;;;5030766;28;20802;-51
2023/04/08 02:37:16;;;;;;;13.57;11.60;;;14.50;60.90;;;;;;5030381;28;20446;-53
2023/04/08 02:39:42;;;;;;;13.57;12.17;;;14.50;60.80;;;;;;5030628;28;20420;-53
2023/04/08 02:42:07;;;;;;;13.93;12.53;;;14.50;60.80;;;;;;5030672;28;20204;-53
2023/04/08 02:44:33;;;;;;;13.93;12.47;;;14.50;60.80;;;;;;5030990;28;20621;-53
2023/04/08 02:46:59;;;;;;;13.83;12.33;;;14.40;60.70;;;;;;5030328;28;20631;-52
2023/04/08 02:49:24;;;;;;;13.07;11.73;;;14.50;60.70;;;;;;5030477;28;20194;-53
2023/04/08 02:51:50;;;;;;;14.80;13.20;;;14.50;60.80;;;;;;5030413;28;20243;-53
2023/04/08 02:54:16;;;;;;;13.33;12.03;;;14.50;60.80;;;;;;5030808;28;20237;-52
2023/04/08 02:56:41;;;;;;;13.13;11.83;;;14.50;60.80;;;;;;5028496;28;20289;-50
2023/04/08 02:59:07;;;;;;;12.80;11.50;;;14.50;60.80;;;;;;5030438;28;20193;-51
2023/04/08 03:01:32;;;;;;;13.20;11.90;;;14.50;60.80;;;;;;5030295;28;20232;-50
2023/04/08 03:03:58;;;;;;;14.53;12.67;;;14.40;60.70;;;;;;5030605;28;20201;-50
2023/04/08 03:06:23;;;;;;;13.80;12.30;;;14.40;60.70;;;;;;5030084;28;20225;-52
2023/04/08 03:08:49;;;;;;;13.20;11.90;;;14.40;60.50;;;;;;5030562;28;20193;-52
2023/04/08 03:11:15;;;;;;;14.63;13.10;;;14.40;60.40;;;;;;5030412;28;20193;-52
2023/04/08 03:13:40;;;;;;;13.33;12.00;;;14.50;60.40;;;;;;5030426;28;20205;-51
2023/04/08 03:16:06;;;;;;;12.90;11.60;;;14.40;60.40;;;;;;5030137;28;20525;-54
2023/04/08 03:18:33;;;;;;;14.33;12.80;;;14.40;60.40;;;;;;5030493;28;20236;-53
2023/04/08 03:20:58;;;;;;;13.87;12.10;;;14.40;60.50;;;;;;5030155;28;20517;-53
2023/04/08 03:23:24;;;;;;;13.07;11.80;;;14.40;60.60;;;;;;5028793;28;20425;-52
2023/04/08 03:25:49;;;;;;;13.00;11.70;;;14.40;60.70;;;;;;5029910;28;20185;-50
2023/04/08 03:28:15;;;;;;;13.17;11.83;;;14.30;60.50;;;;;;5030282;28;20200;-53
2023/04/08 03:30:40;;;;;;;14.40;11.40;;;14.30;60.50;;;;;;5030230;28;20527;-53
2023/04/08 03:33:06;;;;;;;14.60;13.03;;;14.30;60.60;;;;;;5030277;28;20274;-50
2023/04/08 03:35:33;;;;;;;13.87;12.40;;;14.30;60.70;;;;;;5029754;28;20201;-50
2023/04/08 03:37:58;;;;;;;15.63;12.97;;;14.30;60.90;;;;;;5030140;28;20419;-53
2023/04/08 03:40:24;;;;;;;13.83;12.00;;;14.20;60.80;;;;;;5029981;28;20491;-51
2023/04/08 03:42:49;;;;;;;13.40;11.90;;;14.20;60.90;;;;;;5030116;28;20197;-51
2023/04/08 03:45:15;;;;;;;14.40;12.90;;;14.20;60.80;;;;;;5029990;28;20197;-49
2023/04/08 03:47:40;;;;;;;15.10;13.17;;;14.20;60.80;;;;;;5030203;28;20193;-50
2023/04/08 03:50:06;;;;;;;16.77;13.60;;;14.20;60.80;;;;;;5028475;28;20666;-50
2023/04/08 03:52:32;;;;;;;14.70;13.13;;;14.20;60.70;;;;;;5030064;28;20189;-50
2023/04/08 03:54:58;;;;;;;16.03;14.17;;;14.10;60.60;;;;;;5029274;28;20464;-52
2023/04/08 03:57:23;;;;;;;14.43;12.93;;;14.10;60.70;;;;;;5029626;28;20287;-52
2023/04/08 03:59:49;;;;;;;15.00;12.60;;;14.10;60.90;;;;;;5029680;28;20189;-50
2023/04/08 04:02:14;;;;;;;15.50;13.30;;;14.10;60.90;;;;;;5031596;28;20193;-50
2023/04/08 04:04:40;;;;;;;14.60;13.10;;;14.10;60.90;;;;;;5033540;28;20189;-51
2023/04/08 04:07:06;;;;;;;12.63;11.33;;;14.10;60.90;;;;;;5033218;28;20197;-53
2023/04/08 04:09:31;;;;;;;14.10;12.47;;;14.10;60.90;;;;;;5033652;28;20197;-51
2023/04/08 04:11:57;;;;;;;15.43;13.20;;;14.20;60.80;;;;;;5033293;28;20280;-50
2023/04/08 04:14:22;;;;;;;13.47;11.80;;;14.20;61.50;;;;;;5015645;28;20193;-49
2023/04/08 04:16:48;;;;;;;13.67;12.13;;;14.20;60.40;;;;;;5031527;28;20200;-50
2023/04/08 04:19:13;;;;;;;14.30;12.43;;;14.20;60.30;;;;;;5033331;28;20555;-51
2023/04/08 04:21:39;;;;;;;14.30;12.50;;;14.20;60.10;;;;;;5033217;28;20221;-50
2023/04/08 04:24:05;;;;;;;14.27;12.10;;;14.20;60.00;;;;;;5033182;28;20323;-51
2023/04/08 04:26:30;;;;;;;14.77;12.70;;;14.10;59.90;;;;;;5032905;28;20197;-49
2023/04/08 04:28:56;;;;;;;13.60;11.90;;;14.10;59.90;;;;;;5032998;28;20600;-49
2023/04/08 04:31:25;;;;;;;14.80;12.90;;;14.10;59.90;;;;;;5033038;28;20185;-50
2023/04/08 04:33:51;;;;;;;15.43;13.03;;;14.10;60.00;;;;;;5032875;28;20193;-52
2023/04/08 04:36:17;;;;;;;15.87;12.70;;;14.10;60.10;;;;;;5032495;28;20442;-50
2023/04/08 04:38:43;;;;;;;13.23;11.77;;;14.00;60.00;;;;;;5032734;28;20200;-50
2023/04/08 04:41:09;;;;;;;14.93;12.47;;;14.00;60.10;;;;;;5032647;28;20487;-51
2023/04/08 04:43:34;;;;;;;16.07;12.43;;;14.00;60.20;;;;;;5031224;28;20915;-50
2023/04/08 04:46:01;;;;;;;16.40;13.77;;;14.00;60.20;;;;;;5032369;28;20197;-52
2023/04/08 04:48:26;;;;;;;16.87;13.23;;;14.00;60.20;;;;;;5032530;28;20189;-50
2023/04/08 04:50:56;;;;;;;15.77;13.60;;;14.00;60.50;;;;;;5033100;28;20436;-49
2023/04/08 04:53:21;;;;;;;16.20;12.80;;;14.00;60.50;;;;;;5032661;28;20241;-50
2023/04/08 04:55:47;;;;;;;13.60;11.73;;;13.90;60.60;;;;;;5032380;28;21056;-50
2023/04/08 04:58:12;;;;;;;14.77;12.90;;;14.00;60.30;;;;;;5032542;28;20659;-50
2023/04/08 05:00:38;;;;;;;14.07;12.47;;;13.90;60.30;;;;;;5032414;28;20579;-49
2023/04/08 05:03:03;;;;;;;15.77;13.63;;;13.90;60.00;;;;;;5032546;28;20282;-50
2023/04/08 05:05:29;;;;;;;16.63;13.53;;;13.90;59.90;;;;;;5032000;28;20197;-52
2023/04/08 05:07:55;;;;;;;15.60;13.00;;;13.90;60.00;;;;;;5032335;28;20200;-50
2023/04/08 05:10:20;;;;;;;16.60;12.50;;;13.90;60.00;;;;;;5030975;28;20282;-50
2023/04/08 05:12:46;;;;;;;15.00;13.10;;;13.80;59.90;;;;;;5031680;28;20697;-49
2023/04/08 05:15:11;;;;;;;15.00;12.57;;;13.80;60.00;;;;;;5031668;28;20663;-49
2023/04/08 05:17:37;;;;;;;16.40;12.67;;;13.80;60.00;;;;;;5032294;28;20193;-49
2023/04/08 05:20:04;;;;;;;16.40;13.10;;;13.80;60.00;;;;;;5032310;28;20216;-49
2023/04/08 05:22:29;;;;;;;17.07;12.60;;;13.80;60.20;;;;;;5031960;28;20201;-50
2023/04/08 05:24:55;;;;;;;17.53;14.17;;;13.70;60.30;;;;;;5031705;28;20442;-50
2023/04/08 05:27:20;;;;;;;19.43;14.70;;;13.70;60.60;;;;;;5032017;28;20205;-50
2023/04/08 05:29:46;;;;;;;18.57;14.90;;;13.70;60.60;;;;;;5032119;28;20254;-50
2023/04/08 05:32:12;;;;;;;17.20;13.70;;;13.70;61.70;;;;;;5032068;28;20565;-50
2023/04/08 05:34:37;;;;;;;16.90;13.77;;;13.60;61.00;;;;;;5032008;28;20291;-49
2023/04/08 05:37:03;;;;;;;17.93;14.07;;;13.60;61.10;;;;;;5029839;28;20209;-51
2023/04/08 05:39:29;;;;;;;22.50;14.27;;;13.60;61.30;;;;;;5031707;28;20343;-51
2023/04/08 05:41:55;;;;;;;17.97;13.70;;;13.70;61.30;;;;;;5031556;28;20232;-50
2023/04/08 05:44:20;;;;;;;17.87;14.53;;;13.70;61.40;;;;;;5031587;28;20471;-49
2023/04/08 05:46:46;;;;;;;18.20;14.60;;;13.70;61.80;;;;;;5031368;28;20215;-54
2023/04/08 05:49:11;;;;;;;18.30;14.93;;;13.80;61.70;;;;;;5031660;28;20213;-50
2023/04/08 05:51:38;;;;;;;16.97;14.13;;;13.80;61.60;;;;;;5031387;28;20197;-50
2023/04/08 05:54:04;;;;;;;16.57;14.03;;;13.80;61.60;;;;;;5031545;28;20225;-49
2023/04/08 05:56:31;;;;;;;16.40;14.23;;;13.80;61.60;;;;;;5031087;28;20432;-50
2023/04/08 05:58:56;;;;;;;18.20;15.17;;;13.90;61.60;;;;;;5031390;28;20200;-49
2023/04/08 06:01:22;;;;;;;17.17;13.70;;;13.90;61.60;;;;;;5031087;28;20963;-50
2023/04/08 06:03:48;;;;;;;16.93;13.57;;;13.90;61.50;;;;;;5029642;28;20436;-52
2023/04/08 06:06:14;;;;;;;16.50;13.63;;;13.90;61.30;;;;;;5030985;28;20565;-50
2023/04/08 06:08:39;;;;;;;19.23;14.23;;;13.90;61.30;;;;;;5031216;28;20280;-49
2023/04/08 06:11:06;;;;;;;15.83;14.23;;;13.90;61.30;;;;;;5031249;28;20569;-50
2023/04/08 06:13:31;;;;;;;19.13;14.47;;;13.80;61.40;;;;;;5031555;28;20196;-49
2023/04/08 06:15:57;;;;;;;17.73;13.20;;;13.80;61.40;;;;;;5030725;28;20420;-50
2023/04/08 06:18:23;;;;;;;20.23;15.03;;;13.90;61.30;;;;;;5031153;28;20612;-50
2023/04/08 06:20:49;;;;;;;18.10;14.37;;;13.90;61.30;;;;;;5030916;28;20476;-49
2023/04/08 06:23:15;;;;;;;16.87;14.20;;;14.00;61.40;;;;;;5031030;28;20201;-49
2023/04/08 06:25:40;;;;;;;15.93;13.73;;;14.00;61.40;;;;;;5030194;28;20432;-50
2023/04/08 06:28:06;;;;;;;18.13;14.47;;;14.00;61.50;;;;;;5030886;28;20217;-51
2023/04/08 06:30:32;;;;;;;17.50;14.13;;;14.00;61.40;;;;;;5029460;28;20631;-50
2023/04/08 06:32:57;;;;;;;19.00;14.47;;;13.80;61.60;;;;;;5030874;28;20235;-50
2023/04/08 06:35:23;;;;;;;18.77;15.53;;;13.90;61.90;;;;;;5030486;28;20660;-50
2023/04/08 06:37:49;;;;;;;19.87;15.50;;;13.90;62.00;;;;;;5030765;28;20714;-49
2023/04/08 06:40:15;;;;;;;17.10;14.70;;;13.90;61.90;;;;;;5030883;28;20470;-50
2023/04/08 06:42:42;;;;;;;17.60;14.60;;;14.00;61.70;;;;;;5030812;28;20200;-51
2023/04/08 06:45:08;;;;;;;17.80;14.70;;;14.00;61.50;;;;;;5030390;28;20208;-49
2023/04/08 06:47:33;;;;;;;18.60;14.90;;;14.10;61.30;;;;;;5030650;28;20424;-50
2023/04/08 06:49:59;;;;;;;19.73;15.47;;;14.10;61.30;;;;;;5030574;28;20497;-50
2023/04/08 06:52:25;;;;;;;17.50;14.80;;;14.10;61.10;;;;;;5030562;28;20190;-50
2023/04/08 06:54:50;;;;;;;18.37;14.83;;;14.00;60.90;;;;;;5030389;28;20712;-49
2023/04/08 06:57:16;;;;;;;19.77;15.70;;;14.10;60.90;;;;;;5028877;28;20196;-51
2023/04/08 06:59:41;;;;;;;17.07;13.90;;;14.00;61.10;;;;;;5030504;28;20271;-50
2023/04/08 07:02:07;;;;;;;18.57;14.47;;;14.00;60.90;;;;;;5030778;28;20208;-52
2023/04/08 07:04:32;;;;;;;18.87;14.83;;;14.10;60.90;;;;;;5030704;28;20569;-56
2023/04/08 07:06:58;;;;;;;17.43;13.83;;;14.10;60.90;;;;;;5030164;28;20207;-54
2023/04/08 07:09:23;;;;;;;18.57;14.37;;;14.20;61.10;;;;;;5030426;28;20603;-52
2023/04/08 07:11:49;;;;;;;16.00;13.93;;;14.20;60.70;;;;;;5030393;28;20283;-53
2023/04/08 07:14:15;;;;;;;18.43;14.57;;;14.20;60.50;;;;;;5030343;28;20201;-53
2023/04/08 07:16:40;;;;;;;17.10;14.10;;;14.20;60.80;;;;;;5029934;28;20743;-53
2023/04/08 07:19:06;;;;;;;14.30;12.80;;;14.20;60.70;;;;;;5030460;28;20201;-54
2023/04/08 07:21:31;;;;;;;15.87;13.60;;;14.10;60.10;;;;;;5030461;28;20225;-54
2023/04/08 07:23:57;;;;;;;14.97;13.30;;;14.10;60.40;;;;;;5028710;28;20192;-53
2023/04/08 07:26:22;;;;;;;14.90;13.20;;;14.10;60.30;;;;;;5030045;28;20196;-54
2023/04/08 07:28:48;;;;;;;15.73;13.53;;;14.30;60.30;;;;;;5030392;28;20232;-54
2023/04/08 07:31:15;;;;;;;15.40;13.70;;;14.40;60.20;;;;;;5030286;28;20190;-52
2023/04/08 07:33:41;;;;;;;16.40;14.60;;;14.50;60.00;;;;;;5030495;28;20193;-52
2023/04/08 07:36:09;;;;;;;15.97;14.37;;;14.60;59.90;;;;;;5029757;28;20879;-52
2023/04/08 07:38:35;;;;;;;16.37;13.83;;;14.50;60.10;;;;;;5033909;28;20439;-54
2023/04/08 07:41:00;;;;;;;16.70;14.57;;;14.50;60.00;;;;;;5033908;28;20879;-53
2023/04/08 07:43:26;;;;;;;16.07;13.37;;;14.60;59.90;;;;;;5034197;28;20459;-54
2023/04/08 07:45:52;;;;;;;16.20;13.87;;;14.60;59.30;;;;;;5033431;28;20672;-54
2023/04/08 07:48:17;;;;;;;15.97;13.53;;;14.50;59.30;;;;;;5033795;28;20228;-54
2023/04/08 07:50:44;;;;;;;15.13;13.63;;;14.60;59.50;;;;;;5032540;28;20190;-53
2023/04/08 07:53:10;;;;;;;15.00;13.40;;;14.70;59.80;;;;;;5033333;28;20259;-52
2023/04/08 07:55:38;;;;;;;15.53;13.73;;;14.80;59.40;;;;;;5033193;28;20428;-52
2023/04/08 07:58:03;;;;;;;15.37;13.77;;;14.80;59.40;;;;;;5033766;28;20212;-52
2023/04/08 08:00:30;;;;;;;15.00;13.50;;;14.90;59.60;;;;;;5033413;28;20855;-53
2023/04/08 08:02:55;;;;;;;20.73;15.50;;;14.80;59.00;;;;;;5033523;28;21059;-54
2023/04/08 08:05:21;;;;;;;15.30;13.40;;;14.80;59.10;;;;;;5033147;28;20475;-53
2023/04/08 08:07:47;;;;;;;16.13;13.83;;;14.90;59.00;;;;;;5033677;28;20192;-51
2023/04/08 08:10:12;;;;;;;17.20;14.80;;;15.00;58.60;;;;;;5033352;28;20226;-52
2023/04/08 08:12:38;;;;;;;15.33;13.83;;;15.00;58.40;;;;;;5033245;28;20201;-54
2023/04/08 08:15:04;;;;;;;15.53;13.87;;;15.00;58.10;;;;;;5033117;28;20193;-50
2023/04/08 08:17:32;;;;;;;14.10;12.70;;;15.00;58.20;;;;;;5032995;28;20194;-54
2023/04/08 08:19:58;;;;;;;17.53;14.60;;;15.10;58.40;;;;;;5032316;28;20446;-52
2023/04/08 08:22:24;;;;;;;14.90;13.30;;;15.10;58.00;;;;;;5033234;28;20469;-54
2023/04/08 08:24:55;;;;;;;15.87;14.17;;;15.20;57.90;;;;;;5032829;28;20460;-53
2023/04/08 08:27:21;;;;;;;16.60;14.87;;;15.30;58.10;;;;;;5033019;28;20197;-53
2023/04/08 08:29:47;;;;;;;16.43;13.60;;;15.40;58.10;;;;;;5033168;28;20452;-53
2023/04/08 08:32:12;;;;;;;16.07;14.10;;;15.50;58.20;;;;;;5033332;28;20276;-53
2023/04/08 08:34:38;;;;;;;15.27;13.67;;;15.40;57.30;;;;;;5032753;28;20193;-52
2023/04/08 08:37:03;;;;;;;16.27;13.37;;;15.30;57.00;;;;;;5033001;28;20185;-54
2023/04/08 08:39:29;;;;;;;17.03;14.17;;;15.30;57.10;;;;;;5032765;28;20189;-52
2023/04/08 08:41:55;;;;;;;15.57;13.97;;;15.40;56.40;;;;;;5032600;28;20659;-51
2023/04/08 08:44:21;;;;;;;16.40;14.27;;;15.30;55.70;;;;;;5031947;28;20953;-53
2023/04/08 08:46:47;;;;;;;16.63;14.83;;;15.50;55.90;;;;;;5031492;28;20426;-53
2023/04/08 08:49:13;;;;;;;15.20;13.60;;;15.50;55.90;;;;;;5032304;28;20224;-53
2023/04/08 08:51:45;;;;;;;15.17;13.67;;;15.70;55.80;;;;;;5032720;28;20203;-51
2023/04/08 08:54:11;;;;;;;18.37;13.50;;;15.70;54.90;;;;;;5032469;28;20517;-53
2023/04/08 08:56:37;;;;;;;14.40;12.97;;;15.80;54.60;;;;;;5032264;28;20432;-50
2023/04/08 08:59:02;;;;;;;15.37;13.80;;;15.90;54.30;;;;;;5032665;28;20432;-54
2023/04/08 09:01:40;;;;;;;12.73;11.43;;;16.10;54.60;;;;;;5032314;28;20734;-55
2023/04/08 09:04:07;;;;;;;14.07;12.70;;;16.10;54.90;;;;;;5032573;28;20208;-54
2023/04/08 09:06:33;;;;;;;14.97;13.50;;;16.30;54.70;;;;;;5032172;28;20425;-54
2023/04/08 09:08:58;;;;;;;13.90;12.50;;;16.40;53.90;;;;;;5032174;28;20969;-54
2023/04/08 09:11:25;;;;;;;15.20;13.70;;;16.60;52.80;;;;;;5031053;28;20204;-53
2023/04/08 09:13:50;;;;;;;15.27;13.67;;;16.70;52.40;;;;;;5032014;28;20204;-52
2023/04/08 09:16:18;;;;;;;14.33;12.73;;;16.80;53.00;;;;;;5031761;28;20433;-53
2023/04/08 09:18:46;;;;;;;12.63;11.33;;;16.80;52.10;;;;;;5032171;28;20561;-51
2023/04/08 09:21:13;;;;;;;14.30;13.00;;;16.90;51.40;;;;;;5032080;28;20911;-53
2023/04/08 09:23:45;;;;;;;13.97;12.67;;;17.00;52.40;;;;;;5031882;28;20535;-54
2023/04/08 09:26:15;;;;;;;13.50;12.20;;;17.10;51.40;;;;;;5031611;28;20440;-54
2023/04/08 09:28:41;;;;;;;13.13;11.70;;;17.20;51.00;;;;;;5032098;28;20462;-51
2023/04/08 09:31:24;;;;;;;14.70;13.00;;;17.30;50.70;;;;;;5031839;28;20432;-53
2023/04/08 09:33:52;;;;;;;13.63;12.33;;;17.30;50.30;;;;;;5032075;28;20439;-53
2023/04/08 09:36:18;;;;;;;13.13;11.93;;;17.40;50.60;;;;;;5031580;28;20467;-51
2023/04/08 09:38:44;;;;;;;13.70;12.30;;;17.60;50.60;;;;;;5030153;28;20456;-54
2023/04/08 09:41:15;;;;;;;13.77;12.37;;;17.70;50.90;;;;;;5031755;28;20312;-50
2023/04/08 09:43:47;;;;;;;13.07;11.87;;;17.70;49.60;;;;;;5031731;28;20448;-51
2023/04/08 09:46:15;;;;;;;14.07;12.77;;;17.70;50.60;;;;;;5031327;28;20420;-50
2023/04/08 09:49:05;;;;;;;13.60;12.40;;;17.90;50.10;;;;;;5031403;28;20535;-50
2023/04/08 09:51:42;;;;;;;14.00;12.70;;;17.80;48.40;;;;;;5031517;28;20440;-52
2023/04/08 09:54:13;;;;;;;13.30;12.03;;;18.00;48.00;;;;;;5030132;28;21423;-50
2023/04/08 09:56:43;;;;;;;13.63;12.20;;;18.10;48.10;;;;;;5031196;28;20432;-50
2023/04/08 09:59:16;;;;;;;13.00;11.80;;;18.20;46.30;;;;;;5030902;28;20428;-54
2023/04/08 10:01:49;;;;;;;12.60;11.40;;;18.10;46.40;;;;;;5031116;28;20498;-53
2023/04/08 10:04:18;;;;;;;14.13;12.30;;;18.00;45.90;;;;;;5031367;28;20429;-53
2023/04/08 10:06:44;;;;;;;15.07;13.73;;;18.20;45.50;;;;;;5029217;28;21003;-50
2023/04/08 10:09:10;;;;;;;14.70;12.67;;;18.30;46.10;;;;;;5031145;28;20925;-51
2023/04/08 10:11:36;;;;;;;14.93;13.53;;;18.30;44.90;;;;;;5030971;28;20531;-54
2023/04/08 10:14:02;;;;;;;14.73;13.23;;;18.10;44.80;;;;;;5031494;28;20849;-50
2023/04/08 10:16:28;;;;;;;15.70;14.30;;;18.20;45.40;;;;;;5030642;28;20247;-53
2023/04/08 10:18:55;;;;;;;14.53;13.03;;;18.10;45.30;;;;;;5030979;28;20432;-50
2023/04/08 10:21:49;;;;;;;13.30;12.00;;;18.10;44.90;;;;;;5030761;28;20506;-51
2023/04/08 10:24:15;;;;;;;13.50;12.30;;;18.20;45.20;;;;;;5031015;28;20479;-50
2023/04/08 10:26:41;;;;;;;13.20;12.00;;;18.20;44.70;;;;;;5030762;28;20840;-50
2023/04/08 10:29:25;;;;;;;13.07;11.80;;;18.20;44.70;;;;;;5030932;28;20193;-51
2023/04/08 10:31:51;;;;;;;11.63;10.60;;;18.10;43.20;;;;;;5030772;28;20436;-54
2023/04/08 10:34:21;;;;;;;12.60;11.40;;;18.00;43.00;;;;;;5029370;28;20785;-51
2023/04/08 10:36:48;;;;;;;11.93;10.80;;;17.90;42.80;;;;;;5030749;28;20204;-54
2023/04/08 10:39:15;;;;;;;12.00;10.80;;;17.80;43.00;;;;;;5030770;28;20432;-53
2023/04/08 10:41:48;;;;;;;12.17;10.97;;;17.70;43.10;;;;;;5030675;28;20482;-50
2023/04/08 10:44:27;;;;;;;14.97;11.50;;;17.70;43.60;;;;;;5012777;28;20531;-50
2023/04/08 10:46:53;;;;;;;15.97;10.47;;;17.60;43.20;;;;;;5030698;28;20427;-53
2023/04/08 10:49:20;;;;;;;12.80;10.20;;;17.50;42.80;;;;;;5030514;28;20923;-50
2023/04/08 10:51:46;;;;;;;11.80;10.70;;;17.30;43.20;;;;;;5030687;28;20435;-53
2023/04/08 10:54:15;;;;;;;10.60;9.60;;;17.30;42.40;;;;;;5030453;28;20851;-50
2023/04/08 10:56:52;;;;;;;11.33;9.90;;;17.40;42.70;;;;;;5030240;28;20204;-53
2023/04/08 10:59:28;;;;;;;11.57;10.47;;;17.50;43.00;;;;;;5028902;28;20654;-54
2023/04/08 11:01:54;;;;;;;10.90;9.73;;;17.50;42.10;;;;;;5028436;28;20482;-54
2023/04/08 11:04:22;;;;;;;10.57;9.30;;;17.50;42.40;;;;;;5030205;28;20432;-53
2023/04/08 11:06:48;;;;;;;9.87;8.97;;;17.60;42.20;;;;;;5030349;28;20725;-51
2023/04/08 11:09:15;;;;;;;9.87;8.87;;;17.60;41.90;;;;;;5030551;28;20503;-54
2023/04/08 11:11:42;;;;;;;10.00;8.93;;;17.60;40.30;;;;;;5032796;28;20569;-50
2023/04/08 11:14:08;;;;;;;10.53;9.40;;;17.50;40.10;;;;;;5034342;28;20428;-54
2023/04/08 11:16:34;;;;;;;10.70;9.13;;;17.50;40.10;;;;;;5034421;28;20791;-50
2023/04/08 11:19:04;;;;;;;9.03;8.13;;;17.60;40.80;;;;;;5034439;28;20640;-50
2023/04/08 11:21:30;;;;;;;9.20;8.40;;;17.60;38.60;;;;;;5034305;28;20915;-51
2023/04/08 11:23:56;;;;;;;9.93;9.00;;;17.50;39.10;;;;;;5034350;28;20420;-52
2023/04/08 11:26:23;;;;;;;9.00;8.13;;;17.50;39.30;;;;;;5032273;28;20518;-49
2023/04/08 11:28:50;;;;;;;9.50;7.70;;;17.50;40.00;;;;;;5034146;28;20922;-54
2023/04/08 11:31:17;;;;;;;8.37;7.57;;;17.50;39.70;;;;;;5033921;28;20497;-50
2023/04/08 11:33:47;;;;;;;11.63;8.60;;;17.40;39.50;;;;;;5033995;28;20833;-52
2023/04/08 11:36:13;;;;;;;9.80;8.80;;;17.40;39.10;;;;;;5033498;28;20934;-50
2023/04/08 11:38:40;;;;;;;12.43;9.13;;;17.50;39.60;;;;;;5033962;28;20438;-50
2023/04/08 11:41:06;;;;;;;10.43;9.43;;;17.50;39.70;;;;;;5020737;28;20842;-52
2023/04/08 11:43:32;;;;;;;9.60;8.77;;;17.40;40.00;;;;;;5034301;28;20415;-51
2023/04/08 11:45:57;;;;;;;10.17;9.23;;;17.30;40.60;;;;;;5033610;28;20770;-50
2023/04/08 11:48:23;;;;;;;9.80;8.77;;;17.30;40.10;;;;;;5034099;28;20212;-49
2023/04/08 11:51:02;;;;;;;10.07;8.67;;;17.30;40.20;;;;;;5033862;28;20240;-50
2023/04/08 11:53:28;;;;;;;10.27;9.27;;;17.40;40.50;;;;;;5031847;28;20232;-51
2023/04/08 11:55:54;;;;;;;10.17;9.37;;;17.30;40.70;;;;;;5033412;28;20491;-52
2023/04/08 11:58:20;;;;;;;10.00;9.00;;;17.00;41.20;;;;;;5033702;28;20215;-50
2023/04/08 12:00:46;;;;;;;10.00;8.80;;;17.10;41.60;;;;;;5033471;28;20483;-50
2023/04/08 12:03:12;;;;;;;9.23;8.43;;;17.20;41.50;;;;;;5033321;28;20205;-53
2023/04/08 12:05:38;;;;;;;11.03;9.50;;;17.10;41.20;;;;;;5033171;28;20558;-50
2023/04/08 12:08:03;;;;;;;9.83;8.93;;;16.90;42.20;;;;;;5033621;28;20424;-52
2023/04/08 12:10:29;;;;;;;10.33;9.43;;;16.80;42.10;;;;;;5033555;28;20879;-50
2023/04/08 12:12:55;;;;;;;8.80;7.90;;;16.80;42.60;;;;;;5033326;28;20939;-51
2023/04/08 12:15:20;;;;;;;10.73;9.10;;;16.80;42.80;;;;;;5033025;28;20189;-50
2023/04/08 12:17:46;;;;;;;10.27;9.27;;;16.90;42.60;;;;;;5033426;28;20528;-50
2023/04/08 12:20:12;;;;;;;9.73;8.83;;;17.00;43.10;;;;;;5031473;28;20599;-52
2023/04/08 12:22:38;;;;;;;9.13;8.07;;;17.00;42.10;;;;;;5032452;28;20193;-51
2023/04/08 12:25:05;;;;;;;10.47;9.40;;;17.00;42.40;;;;;;5032886;28;20963;-50
2023/04/08 12:27:34;;;;;;;9.57;8.67;;;17.00;42.20;;;;;;5033230;28;20425;-54
2023/04/08 12:30:02;;;;;;;9.50;8.70;;;17.20;42.30;;;;;;5033018;28;20431;-51